createdAt,value
2023-02-21T00:00:40.572Z,2.92
2023-02-21T00:02:01.864Z,3.13
2023-02-21T00:03:22.868Z,2.60
2023-02-21T00:04:43.833Z,2.88
2023-02-21T00:06:05.062Z,3.05
2023-02-21T00:07:26.192Z,2.45
2023-02-21T00:08:47.177Z,2.80
2023-02-21T00:10:08.417Z,2.70
2023-02-21T00:11:29.278Z,2.83
2023-02-21T00:12:50.404Z,2.40
2023-02-21T00:14:11.382Z,2.47
2023-02-21T00:15:32.721Z,2.70
2023-02-21T00:16:53.954Z,2.65
2023-02-21T00:18:15.007Z,2.58
2023-02-21T00:19:36.064Z,3.15
2023-02-21T00:20:57.032Z,3.00
2023-02-21T00:22:18.251Z,3.03
2023-02-21T00:23:39.297Z,2.60
2023-02-21T00:25:00.352Z,2.63
2023-02-21T00:26:21.382Z,2.70
2023-02-21T00:27:44.130Z,2.90
2023-02-21T00:29:04.953Z,2.35
2023-02-21T00:30:26.485Z,20.15
2023-02-21T00:31:47.628Z,9.88
2023-02-21T00:33:08.858Z,8.60
2023-02-21T00:34:30.296Z,5.72
2023-02-21T00:35:51.400Z,5.85
2023-02-21T00:37:12.768Z,5.32
2023-02-21T00:38:33.537Z,4.38
2023-02-21T00:39:54.387Z,4.15
2023-02-21T00:41:15.865Z,3.90
2023-02-21T00:43:58.299Z,3.28
2023-02-21T00:45:19.270Z,3.05
2023-02-21T00:46:41.352Z,3.10
2023-02-21T00:48:02.437Z,3.13
2023-02-21T00:49:24.497Z,2.92
2023-02-21T00:50:45.381Z,3.22
2023-02-21T00:52:06.492Z,2.63
2023-02-21T00:53:27.366Z,3.05
2023-02-21T00:54:50.529Z,3.20
2023-02-21T00:56:11.810Z,2.65
2023-02-21T00:57:33.240Z,3.17
2023-02-21T00:58:54.215Z,4.50
2023-02-21T01:00:15.315Z,4.07
2023-02-21T01:01:36.433Z,5.30
2023-02-21T01:02:57.573Z,4.90
2023-02-21T01:04:18.673Z,4.20
2023-02-21T01:05:40.390Z,3.90
2023-02-21T01:07:01.499Z,3.88
2023-02-21T01:08:22.495Z,3.88
2023-02-21T01:09:43.670Z,2.95
2023-02-21T01:11:04.751Z,3.60
2023-02-21T01:12:25.325Z,2.97
2023-02-21T01:13:46.366Z,3.08
2023-02-21T01:15:07.418Z,3.20
2023-02-21T01:16:28.545Z,3.08
2023-02-21T01:17:49.436Z,2.85
2023-02-21T01:19:10.965Z,3.13
2023-02-21T01:20:31.836Z,2.65
2023-02-21T01:21:52.931Z,2.35
2023-02-21T01:23:13.886Z,2.70
2023-02-21T01:24:36.210Z,2.95
2023-02-21T01:25:58.911Z,2.80
2023-02-21T01:27:22.500Z,2.85
2023-02-21T01:30:04.054Z,2.20
2023-02-21T01:31:25.659Z,2.75
2023-02-21T01:32:46.702Z,2.70
2023-02-21T01:34:07.776Z,2.60
2023-02-21T01:35:28.876Z,2.70
2023-02-21T01:36:50.043Z,2.28
2023-02-21T01:38:11.071Z,3.08
2023-02-21T01:39:33.065Z,2.60
2023-02-21T01:40:57.150Z,2.55
2023-02-21T01:42:19.058Z,2.63
2023-02-21T01:43:42.524Z,2.03
2023-02-21T01:45:06.373Z,2.38
2023-02-21T01:46:31.115Z,2.30
2023-02-21T01:47:52.859Z,2.30
2023-02-21T01:50:41.546Z,1.90
2023-02-21T01:52:03.393Z,1.80
2023-02-21T01:53:28.544Z,1.98
2023-02-21T01:54:54.653Z,2.10
2023-02-21T01:56:17.234Z,2.30
2023-02-21T01:57:39.283Z,1.83
2023-02-21T01:59:00.456Z,2.15
2023-02-21T02:00:25.021Z,1.90
2023-02-21T02:01:57.398Z,1.98
2023-02-21T02:03:22.233Z,2.10
2023-02-21T02:04:43.234Z,1.80
2023-02-21T02:06:26.363Z,2.13
2023-02-21T02:07:47.476Z,1.67
2023-02-21T02:09:08.521Z,2.15
2023-02-21T02:10:31.590Z,1.60
2023-02-21T02:12:11.800Z,1.80
2023-02-21T02:13:34.724Z,1.77
2023-02-21T02:14:54.212Z,1.73
2023-02-21T02:16:15.426Z,1.70
2023-02-21T02:17:17.800Z,1.83
2023-02-21T02:18:49.527Z,1.85
2023-02-21T02:20:22.117Z,1.80
2023-02-21T02:21:57.668Z,1.67
2023-02-21T02:23:15.147Z,1.95
2023-02-21T02:24:20.056Z,1.92
2023-02-21T02:25:45.552Z,1.60
2023-02-21T02:27:00.674Z,1.60
2023-02-21T02:28:06.148Z,1.90
2023-02-21T02:29:26.347Z,2.05
2023-02-21T02:30:33.108Z,1.90
2023-02-21T02:32:09.982Z,1.65
2023-02-21T02:33:46.214Z,1.67
2023-02-21T02:35:11.453Z,1.70
2023-02-21T02:36:35.978Z,1.50
2023-02-21T02:37:52.432Z,1.85
2023-02-21T02:39:10.160Z,1.50
2023-02-21T02:40:45.789Z,1.48
2023-02-21T02:42:03.179Z,1.95
2023-02-21T02:43:20.550Z,1.55
2023-02-21T02:44:34.242Z,1.95
2023-02-21T02:45:58.175Z,1.60
2023-02-21T02:47:03.624Z,1.60
2023-02-21T02:48:15.843Z,1.80
2023-02-21T02:49:24.903Z,1.75
2023-02-21T02:50:28.880Z,1.58
2023-02-21T02:51:34.065Z,1.73
2023-02-21T02:52:48.899Z,1.70
2023-02-21T02:53:51.214Z,1.73
2023-02-21T02:55:06.404Z,1.55
2023-02-21T02:56:12.016Z,1.50
2023-02-21T02:57:14.659Z,1.50
2023-02-21T02:58:19.526Z,1.58
2023-02-21T02:59:26.268Z,1.60
2023-02-21T03:00:30.645Z,1.60
2023-02-21T03:01:52.232Z,2.05
2023-02-21T03:03:31.501Z,1.77
2023-02-21T03:05:17.003Z,1.65
2023-02-21T03:06:58.361Z,1.40
2023-02-21T03:08:17.751Z,1.60
2023-02-21T03:09:43.351Z,1.48
2023-02-21T03:11:03.135Z,1.67
2023-02-21T03:12:27.272Z,1.38
2023-02-21T03:13:55.530Z,1.40
2023-02-21T03:15:07.483Z,1.48
2023-02-21T03:16:10.265Z,1.42
2023-02-21T03:17:16.079Z,1.55
2023-02-21T03:18:41.150Z,1.30
2023-02-21T03:19:48.599Z,1.30
2023-02-21T03:20:56.668Z,1.50
2023-02-21T03:22:06.881Z,1.60
2023-02-21T03:23:13.458Z,1.27
2023-02-21T03:24:18.361Z,1.60
2023-02-21T03:25:22.673Z,1.60
2023-02-21T03:26:27.406Z,2.08
2023-02-21T03:27:35.369Z,1.20
2023-02-21T03:28:50.683Z,1.40
2023-02-21T03:29:58.309Z,1.63
2023-02-21T03:31:04.019Z,1.38
2023-02-21T03:32:25.300Z,1.30
2023-02-21T03:33:28.542Z,1.50
2023-02-21T03:34:30.829Z,1.40
2023-02-21T03:35:33.766Z,1.50
2023-02-21T03:36:38.549Z,1.80
2023-02-21T03:37:44.201Z,1.50
2023-02-21T03:38:47.080Z,1.60
2023-02-21T03:39:49.479Z,1.40
2023-02-21T03:40:52.151Z,1.33
2023-02-21T03:41:54.685Z,1.60
2023-02-21T03:42:59.165Z,1.30
2023-02-21T03:44:04.205Z,1.40
2023-02-21T03:45:06.673Z,1.20
2023-02-21T03:46:09.187Z,1.42
2023-02-21T03:47:11.907Z,1.45
2023-02-21T03:48:17.787Z,1.10
2023-02-21T03:49:26.132Z,1.40
2023-02-21T03:50:28.650Z,1.08
2023-02-21T03:51:30.988Z,1.27
2023-02-21T03:52:33.502Z,1.50
2023-02-21T03:53:35.837Z,1.30
2023-02-21T03:54:40.103Z,1.48
2023-02-21T03:55:43.347Z,1.25
2023-02-21T03:56:50.812Z,1.27
2023-02-21T03:58:04.661Z,1.30
2023-02-21T03:59:08.754Z,1.33
2023-02-21T04:00:12.195Z,1.92
2023-02-21T04:01:25.359Z,1.75
2023-02-21T04:02:29.494Z,1.40
2023-02-21T04:03:32.058Z,1.35
2023-02-21T04:04:38.458Z,1.75
2023-02-21T04:05:46.976Z,1.42
2023-02-21T04:06:49.875Z,1.33
2023-02-21T04:07:52.226Z,1.63
2023-02-21T04:08:54.465Z,1.50
2023-02-21T04:09:58.326Z,1.25
2023-02-21T04:11:11.293Z,2.00
2023-02-21T04:12:13.755Z,1.80
2023-02-21T04:13:16.263Z,1.40
2023-02-21T04:14:21.757Z,1.27
2023-02-21T04:15:24.566Z,1.50
2023-02-21T04:16:27.333Z,1.48
2023-02-21T04:17:31.223Z,1.40
2023-02-21T04:18:37.319Z,1.40
2023-02-21T04:19:41.024Z,1.50
2023-02-21T04:20:43.399Z,1.23
2023-02-21T04:21:49.994Z,1.50
2023-02-21T04:23:02.714Z,1.58
2023-02-21T04:24:05.934Z,1.58
2023-02-21T04:25:09.368Z,1.35
2023-02-21T04:26:21.646Z,1.73
2023-02-21T04:27:27.283Z,1.20
2023-02-21T04:28:32.141Z,1.30
2023-02-21T04:29:34.746Z,1.30
2023-02-21T04:30:37.149Z,1.48
2023-02-21T04:31:40.415Z,1.23
2023-02-21T04:32:46.909Z,1.48
2023-02-21T04:33:59.504Z,1.48
2023-02-21T04:35:08.479Z,1.50
2023-02-21T04:36:11.183Z,1.60
2023-02-21T04:37:17.804Z,1.40
2023-02-21T04:38:20.133Z,1.50
2023-02-21T04:39:22.410Z,1.95
2023-02-21T04:40:25.567Z,1.48
2023-02-21T04:41:27.852Z,1.38
2023-02-21T04:42:30.114Z,1.40
2023-02-21T04:43:32.710Z,1.67
2023-02-21T04:44:35.164Z,1.50
2023-02-21T04:45:37.438Z,1.73
2023-02-21T04:46:39.796Z,1.20
2023-02-21T04:47:42.980Z,1.58
2023-02-21T04:48:48.355Z,1.50
2023-02-21T04:49:52.384Z,1.65
2023-02-21T04:50:57.280Z,1.35
2023-02-21T04:52:01.645Z,1.40
2023-02-21T04:53:04.009Z,1.27
2023-02-21T04:54:07.861Z,1.55
2023-02-21T04:55:10.216Z,1.55
2023-02-21T04:56:12.725Z,1.60
2023-02-21T04:57:16.177Z,1.35
2023-02-21T04:58:18.515Z,1.20
2023-02-21T04:59:20.924Z,1.42
2023-02-21T05:00:23.714Z,1.20
2023-02-21T05:01:31.220Z,1.23
2023-02-21T05:02:34.365Z,1.50
2023-02-21T05:03:36.677Z,1.17
2023-02-21T05:04:39.241Z,1.50
2023-02-21T05:05:41.530Z,1.40
2023-02-21T05:06:43.841Z,1.38
2023-02-21T05:07:46.098Z,1.20
2023-02-21T05:08:48.844Z,1.20
2023-02-21T05:09:51.622Z,1.48
2023-02-21T05:10:54.944Z,1.20
2023-02-21T05:11:57.268Z,1.33
2023-02-21T05:12:59.579Z,1.60
2023-02-21T05:14:02.181Z,1.42
2023-02-21T05:15:05.591Z,1.38
2023-02-21T05:16:07.994Z,1.65
2023-02-21T05:17:10.571Z,1.42
2023-02-21T05:18:12.922Z,1.13
2023-02-21T05:19:27.102Z,1.65
2023-02-21T05:20:29.381Z,1.30
2023-02-21T05:21:36.226Z,1.15
2023-02-21T05:22:42.517Z,1.83
2023-02-21T05:23:55.596Z,2.22
2023-02-21T05:24:57.888Z,2.10
2023-02-21T05:26:10.124Z,2.45
2023-02-21T05:27:15.510Z,10.35
2023-02-21T05:28:17.785Z,55.50
2023-02-21T05:29:20.279Z,82.50
2023-02-21T05:30:26.242Z,69.28
2023-02-21T05:31:29.323Z,65.45
2023-02-21T05:32:31.694Z,53.67
2023-02-21T05:33:34.262Z,49.00
2023-02-21T05:34:36.734Z,39.20
2023-02-21T05:35:39.257Z,28.52
2023-02-21T05:36:42.155Z,23.50
2023-02-21T05:37:44.526Z,22.80
2023-02-21T05:38:52.639Z,20.10
2023-02-21T05:39:55.014Z,15.93
2023-02-21T05:40:57.330Z,13.70
2023-02-21T05:41:59.601Z,13.13
2023-02-21T05:43:01.860Z,11.23
2023-02-21T05:44:05.388Z,11.07
2023-02-21T05:45:08.098Z,10.32
2023-02-21T05:46:28.836Z,9.98
2023-02-21T05:47:31.109Z,9.97
2023-02-21T05:48:33.419Z,9.82
2023-02-21T05:49:35.725Z,10.27
2023-02-21T05:50:39.625Z,10.63
2023-02-21T05:51:43.655Z,9.80
2023-02-21T05:52:45.980Z,9.95
2023-02-21T05:53:48.841Z,10.23
2023-02-21T05:54:51.179Z,9.82
2023-02-21T05:55:53.506Z,10.48
2023-02-21T05:56:55.808Z,9.20
2023-02-21T05:57:58.178Z,9.90
2023-02-21T05:59:00.750Z,9.95
2023-02-21T06:00:03.318Z,6.20
2023-02-21T06:01:14.860Z,5.32
2023-02-21T06:02:17.489Z,8.07
2023-02-21T06:03:19.824Z,7.95
2023-02-21T06:04:22.611Z,5.90
2023-02-21T06:05:25.433Z,5.90
2023-02-21T06:06:27.804Z,5.07
2023-02-21T06:07:30.118Z,5.88
2023-02-21T06:08:32.506Z,5.53
2023-02-21T06:09:34.830Z,6.72
2023-02-21T06:10:37.078Z,6.22
2023-02-21T06:11:40.437Z,6.65
2023-02-21T06:12:42.845Z,6.75
2023-02-21T06:13:45.176Z,6.57
2023-02-21T06:14:47.528Z,6.90
2023-02-21T06:15:49.893Z,6.72
2023-02-21T06:16:52.236Z,6.35
2023-02-21T06:17:54.627Z,6.55
2023-02-21T06:18:57.330Z,7.43
2023-02-21T06:19:59.918Z,5.93
2023-02-21T06:21:02.769Z,6.50
2023-02-21T06:22:05.041Z,6.35
2023-02-21T06:23:07.627Z,6.10
2023-02-21T06:24:10.956Z,6.45
2023-02-21T06:25:13.567Z,6.70
2023-02-21T06:26:17.296Z,6.35
2023-02-21T06:27:19.709Z,5.30
2023-02-21T06:28:22.086Z,5.40
2023-02-21T06:29:24.380Z,6.75
2023-02-21T06:30:27.086Z,8.90
2023-02-21T06:31:29.389Z,9.73
2023-02-21T06:32:32.096Z,8.70
2023-02-21T06:33:34.599Z,7.85
2023-02-21T06:34:36.882Z,7.03
2023-02-21T06:35:39.211Z,8.68
2023-02-21T06:36:41.562Z,11.68
2023-02-21T06:37:43.898Z,9.73
2023-02-21T06:38:48.716Z,10.48
2023-02-21T06:39:51.055Z,9.43
2023-02-21T06:40:53.354Z,8.90
2023-02-21T06:41:55.626Z,8.15
2023-02-21T06:42:57.936Z,8.50
2023-02-21T06:44:00.319Z,7.30
2023-02-21T06:45:02.711Z,7.50
2023-02-21T06:46:05.319Z,7.60
2023-02-21T06:47:07.751Z,6.57
2023-02-21T06:48:15.151Z,6.32
2023-02-21T06:49:17.516Z,6.20
2023-02-21T06:50:19.893Z,6.18
2023-02-21T06:51:29.054Z,6.25
2023-02-21T06:52:32.035Z,5.55
2023-02-21T06:53:34.645Z,6.13
2023-02-21T06:54:37.121Z,5.95
2023-02-21T06:55:39.416Z,6.70
2023-02-21T06:56:41.757Z,6.18
2023-02-21T06:57:44.005Z,6.15
2023-02-21T06:58:46.278Z,5.88
2023-02-21T06:59:48.579Z,6.45
2023-02-21T07:00:50.871Z,5.88
2023-02-21T07:01:53.162Z,6.28
2023-02-21T07:02:55.446Z,5.82
2023-02-21T07:03:58.597Z,6.18
2023-02-21T07:05:00.975Z,6.07
2023-02-21T07:06:03.402Z,5.82
2023-02-21T07:07:05.646Z,5.80
2023-02-21T07:08:08.181Z,5.90
2023-02-21T07:09:10.500Z,6.60
2023-02-21T07:10:13.186Z,5.70
2023-02-21T07:11:17.557Z,5.70
2023-02-21T07:12:19.931Z,6.18
2023-02-21T07:13:22.684Z,6.22
2023-02-21T07:14:25.089Z,5.97
2023-02-21T07:15:27.490Z,5.53
2023-02-21T07:16:30.256Z,5.97
2023-02-21T07:17:32.695Z,5.72
2023-02-21T07:18:34.963Z,5.88
2023-02-21T07:19:37.296Z,6.25
2023-02-21T07:21:40.820Z,5.00
2023-02-21T07:22:43.166Z,5.68
2023-02-21T07:23:46.133Z,5.57
2023-02-21T07:24:48.483Z,5.30
2023-02-21T07:25:50.830Z,6.00
2023-02-21T07:26:53.376Z,5.53
2023-02-21T07:27:55.763Z,10.50
2023-02-21T07:28:58.119Z,9.10
2023-02-21T07:30:01.441Z,28.65
2023-02-21T07:31:04.185Z,27.55
2023-02-21T07:32:06.648Z,19.55
2023-02-21T07:33:09.029Z,23.98
2023-02-21T07:34:12.265Z,17.52
2023-02-21T07:35:14.596Z,18.95
2023-02-21T07:36:17.071Z,15.98
2023-02-21T07:37:19.445Z,14.38
2023-02-21T07:38:26.872Z,14.35
2023-02-21T07:39:29.193Z,13.95
2023-02-21T07:40:31.523Z,12.90
2023-02-21T07:41:33.829Z,11.88
2023-02-21T07:42:36.190Z,10.85
2023-02-21T07:43:39.243Z,11.40
2023-02-21T07:44:41.577Z,9.60
2023-02-21T07:45:44.009Z,9.18
2023-02-21T07:46:46.459Z,9.18
2023-02-21T07:47:51.046Z,9.50
2023-02-21T07:48:53.441Z,9.05
2023-02-21T07:49:55.819Z,9.00
2023-02-21T07:50:58.244Z,9.07
2023-02-21T07:52:00.532Z,9.38
2023-02-21T07:53:03.042Z,9.45
2023-02-21T07:54:05.473Z,9.32
2023-02-21T07:55:08.087Z,8.80
2023-02-21T07:56:10.551Z,8.45
2023-02-21T07:57:13.522Z,8.98
2023-02-21T07:58:16.084Z,8.48
2023-02-21T07:59:18.449Z,9.02
2023-02-21T08:00:25.151Z,8.02
2023-02-21T08:01:28.048Z,7.55
2023-02-21T08:02:30.406Z,8.57
2023-02-21T08:03:33.192Z,8.63
2023-02-21T08:04:35.480Z,8.18
2023-02-21T08:05:37.754Z,7.95
2023-02-21T08:06:40.044Z,8.38
2023-02-21T08:07:42.587Z,7.63
2023-02-21T08:08:45.745Z,7.60
2023-02-21T08:09:48.198Z,8.40
2023-02-21T08:10:50.678Z,7.40
2023-02-21T08:11:53.078Z,7.63
2023-02-21T08:12:55.441Z,7.53
2023-02-21T08:13:57.693Z,7.30
2023-02-21T08:15:00.079Z,7.65
2023-02-21T08:16:02.489Z,7.60
2023-02-21T08:17:04.832Z,8.27
2023-02-21T08:18:07.209Z,7.40
2023-02-21T08:19:09.777Z,7.60
2023-02-21T08:20:12.172Z,6.75
2023-02-21T08:21:14.794Z,7.32
2023-02-21T08:22:17.319Z,7.18
2023-02-21T08:23:20.601Z,8.38
2023-02-21T08:24:22.988Z,7.38
2023-02-21T08:25:25.294Z,7.22
2023-02-21T08:26:28.124Z,7.50
2023-02-21T08:27:30.542Z,7.78
2023-02-21T08:28:32.953Z,9.13
2023-02-21T08:29:35.271Z,7.50
2023-02-21T08:30:37.683Z,8.35
2023-02-21T08:31:41.562Z,8.20
2023-02-21T08:32:47.443Z,7.28
2023-02-21T08:33:49.723Z,7.82
2023-02-21T08:34:52.011Z,7.85
2023-02-21T08:35:54.554Z,7.35
2023-02-21T08:36:57.096Z,6.88
2023-02-21T08:38:03.094Z,7.90
2023-02-21T08:39:06.220Z,7.45
2023-02-21T08:40:08.948Z,6.93
2023-02-21T08:41:11.242Z,7.13
2023-02-21T08:42:14.111Z,6.75
2023-02-21T08:43:16.567Z,7.93
2023-02-21T08:44:21.724Z,6.88
2023-02-21T08:45:25.320Z,6.60
2023-02-21T08:46:27.738Z,6.70
2023-02-21T08:47:30.127Z,6.30
2023-02-21T08:48:32.424Z,7.03
2023-02-21T08:49:34.763Z,6.97
2023-02-21T08:50:37.166Z,7.35
2023-02-21T08:51:40.245Z,7.13
2023-02-21T08:52:42.650Z,7.10
2023-02-21T08:53:45.156Z,7.03
2023-02-21T08:54:47.448Z,7.25
2023-02-21T08:55:49.703Z,7.47
2023-02-21T08:56:52.370Z,6.90
2023-02-21T08:57:54.980Z,6.43
2023-02-21T08:58:57.487Z,6.68
2023-02-21T08:59:59.922Z,6.53
2023-02-21T09:01:02.271Z,6.75
2023-02-21T09:02:04.698Z,6.57
2023-02-21T09:03:07.262Z,6.70
2023-02-21T09:04:09.750Z,6.88
2023-02-21T09:05:24.611Z,6.18
2023-02-21T09:06:26.997Z,6.10
2023-02-21T09:07:31.192Z,7.10
2023-02-21T09:08:33.940Z,6.53
2023-02-21T09:09:38.196Z,6.32
2023-02-21T09:10:47.105Z,6.25
2023-02-21T09:11:49.513Z,5.50
2023-02-21T09:12:51.802Z,5.82
2023-02-21T09:13:55.184Z,5.60
2023-02-21T09:14:57.526Z,6.15
2023-02-21T09:16:01.335Z,5.72
2023-02-21T09:17:05.572Z,6.03
2023-02-21T09:18:07.911Z,5.97
2023-02-21T09:19:10.324Z,5.95
2023-02-21T09:20:17.944Z,5.90
2023-02-21T09:21:20.297Z,6.00
2023-02-21T09:22:22.654Z,5.78
2023-02-21T09:23:27.768Z,5.68
2023-02-21T09:24:30.438Z,5.85
2023-02-21T09:25:32.954Z,6.28
2023-02-21T09:26:35.284Z,5.90
2023-02-21T09:27:37.680Z,6.00
2023-02-21T09:28:43.300Z,5.40
2023-02-21T09:29:47.182Z,5.78
2023-02-21T09:30:50.386Z,5.88
2023-02-21T09:31:53.150Z,5.28
2023-02-21T09:32:56.551Z,5.43
2023-02-21T09:33:58.934Z,5.00
2023-02-21T09:35:01.356Z,5.13
2023-02-21T09:36:03.788Z,5.55
2023-02-21T09:37:06.207Z,5.10
2023-02-21T09:38:09.471Z,5.30
2023-02-21T09:39:12.755Z,5.03
2023-02-21T09:40:41.412Z,4.72
2023-02-21T09:41:44.128Z,5.20
2023-02-21T09:42:49.195Z,5.32
2023-02-21T09:43:54.505Z,5.30
2023-02-21T09:44:57.403Z,5.25
2023-02-21T09:46:05.406Z,5.25
2023-02-21T09:47:10.160Z,4.90
2023-02-21T09:48:17.630Z,4.85
2023-02-21T09:49:20.029Z,5.10
2023-02-21T09:50:30.337Z,5.20
2023-02-21T09:51:37.021Z,5.45
2023-02-21T09:52:41.135Z,5.47
2023-02-21T09:53:47.845Z,47.72
2023-02-21T09:54:58.417Z,46.42
2023-02-21T09:56:12.991Z,66.57
2023-02-21T09:57:18.048Z,60.38
2023-02-21T09:58:21.139Z,64.78
2023-02-21T09:59:23.614Z,55.22
2023-02-21T10:00:46.626Z,46.08
2023-02-21T10:02:01.854Z,30.30
2023-02-21T10:03:07.092Z,18.55
2023-02-21T10:04:27.258Z,16.88
2023-02-21T10:06:05.420Z,18.73
2023-02-21T10:07:42.909Z,19.98
2023-02-21T10:09:11.966Z,19.55
2023-02-21T10:10:20.449Z,20.15
2023-02-21T10:11:58.367Z,18.90
2023-02-21T10:13:31.485Z,19.73
2023-02-21T10:14:58.236Z,19.33
2023-02-21T10:16:05.096Z,18.33
2023-02-21T10:17:30.225Z,18.17
2023-02-21T10:18:41.599Z,19.83
2023-02-21T10:20:54.766Z,16.95
2023-02-21T10:22:01.038Z,17.05
2023-02-21T10:23:05.789Z,17.17
2023-02-21T10:24:13.995Z,17.80
2023-02-21T10:25:32.312Z,15.98
2023-02-21T10:26:40.999Z,17.42
2023-02-21T10:27:43.375Z,16.48
2023-02-21T10:28:45.857Z,16.83
2023-02-21T10:29:56.031Z,15.40
2023-02-21T10:31:03.419Z,16.45
2023-02-21T10:32:05.914Z,34.63
2023-02-21T10:33:08.763Z,53.47
2023-02-21T10:34:24.130Z,69.22
2023-02-21T10:35:26.611Z,76.93
2023-02-21T10:36:29.130Z,64.13
2023-02-21T10:37:52.428Z,53.20
2023-02-21T10:39:10.501Z,45.20
2023-02-21T10:40:35.476Z,38.45
2023-02-21T10:41:41.128Z,30.75
2023-02-21T10:42:51.279Z,24.27
2023-02-21T10:44:01.659Z,26.02
2023-02-21T10:45:04.980Z,25.42
2023-02-21T10:46:26.114Z,24.50
2023-02-21T10:47:48.088Z,27.27
2023-02-21T10:48:55.396Z,26.02
2023-02-21T10:50:06.848Z,27.02
2023-02-21T10:52:17.058Z,24.30
2023-02-21T10:53:40.286Z,24.95
2023-02-21T10:54:59.075Z,24.38
2023-02-21T10:56:13.494Z,23.05
2023-02-21T10:57:17.164Z,24.92
2023-02-21T10:58:27.262Z,23.75
2023-02-21T10:59:33.193Z,23.42
2023-02-21T11:00:47.609Z,22.20
2023-02-21T11:01:50.909Z,17.58
2023-02-21T11:03:02.343Z,11.70
2023-02-21T11:05:14.272Z,42.85
2023-02-21T11:06:35.476Z,20.92
2023-02-21T11:07:38.220Z,18.73
2023-02-21T11:08:43.465Z,15.25
2023-02-21T11:09:47.219Z,11.00
2023-02-21T11:10:55.967Z,11.93
2023-02-21T11:12:15.747Z,12.77
2023-02-21T11:13:21.852Z,9.75
2023-02-21T11:14:26.057Z,9.68
2023-02-21T11:15:28.348Z,8.65
2023-02-21T11:16:32.981Z,8.43
2023-02-21T11:17:35.323Z,7.95
2023-02-21T11:18:37.683Z,7.28
2023-02-21T11:19:51.582Z,7.55
2023-02-21T11:20:54.294Z,6.10
2023-02-21T11:21:57.110Z,6.43
2023-02-21T11:22:59.698Z,6.18
2023-02-21T11:24:05.221Z,6.18
2023-02-21T11:25:28.430Z,6.75
2023-02-21T11:26:45.994Z,5.60
2023-02-21T11:28:07.158Z,5.72
2023-02-21T11:29:14.976Z,5.40
2023-02-21T11:30:22.307Z,5.20
2023-02-21T11:31:30.701Z,4.38
2023-02-21T11:32:37.394Z,4.18
2023-02-21T11:33:42.492Z,4.75
2023-02-21T11:34:48.358Z,4.43
2023-02-21T11:35:54.564Z,5.00
2023-02-21T11:37:03.457Z,4.22
2023-02-21T11:38:12.307Z,3.75
2023-02-21T11:39:18.625Z,3.85
2023-02-21T11:40:33.029Z,3.25
2023-02-21T11:41:44.629Z,3.03
2023-02-21T11:42:47.101Z,3.45
2023-02-21T11:43:52.834Z,3.17
2023-02-21T11:45:23.992Z,3.28
2023-02-21T11:46:29.224Z,2.97
2023-02-21T11:47:42.947Z,2.97
2023-02-21T11:48:56.338Z,2.95
2023-02-21T11:50:11.126Z,2.97
2023-02-21T11:52:05.437Z,3.05
2023-02-21T11:53:14.745Z,2.22
2023-02-21T11:54:19.497Z,2.47
2023-02-21T11:55:26.517Z,2.35
2023-02-21T11:57:14.291Z,2.75
2023-02-21T11:58:29.306Z,41.72
2023-02-21T11:59:46.053Z,67.82
2023-02-21T12:01:06.130Z,62.05
2023-02-21T12:02:20.407Z,36.58
2023-02-21T12:03:41.151Z,30.08
2023-02-21T12:05:24.993Z,31.40
2023-02-21T12:06:33.026Z,27.35
2023-02-21T12:07:38.381Z,26.35
2023-02-21T12:08:59.133Z,24.13
2023-02-21T12:10:33.713Z,21.43
2023-02-21T12:12:02.544Z,17.42
2023-02-21T12:13:33.236Z,17.25
2023-02-21T12:15:01.119Z,14.30
2023-02-21T12:16:45.547Z,14.63
2023-02-21T12:18:21.753Z,13.77
2023-02-21T12:19:48.450Z,14.32
2023-02-21T12:21:13.089Z,14.35
2023-02-21T12:22:18.461Z,13.38
2023-02-21T12:23:48.931Z,14.43
2023-02-21T12:25:13.560Z,14.45
2023-02-21T12:26:21.976Z,12.05
2023-02-21T12:28:05.797Z,12.65
2023-02-21T12:29:35.121Z,12.50
2023-02-21T12:31:00.488Z,12.18
2023-02-21T12:32:27.247Z,12.02
2023-02-21T12:33:42.992Z,12.50
2023-02-21T12:35:06.556Z,12.30
2023-02-21T12:36:30.766Z,12.60
2023-02-21T12:37:55.948Z,12.55
2023-02-21T12:39:23.779Z,11.38
2023-02-21T12:41:01.185Z,12.68
2023-02-21T12:42:35.077Z,11.82
2023-02-21T12:43:42.991Z,11.38
2023-02-21T12:45:27.397Z,10.38
2023-02-21T12:46:42.505Z,11.70
2023-02-21T12:48:00.050Z,13.50
2023-02-21T12:49:23.962Z,16.15
2023-02-21T12:50:36.566Z,37.55
2023-02-21T12:51:49.271Z,46.35
2023-02-21T12:53:18.716Z,41.53
2023-02-21T12:54:29.067Z,34.65
2023-02-21T12:55:37.285Z,26.53
2023-02-21T12:56:53.012Z,22.33
2023-02-21T12:57:58.415Z,17.88
2023-02-21T12:59:21.581Z,18.25
2023-02-21T13:00:38.917Z,17.58
2023-02-21T13:02:04.265Z,15.50
2023-02-21T13:03:39.774Z,15.93
2023-02-21T13:04:49.615Z,15.95
2023-02-21T13:06:02.220Z,14.63
2023-02-21T13:07:18.878Z,15.23
2023-02-21T13:08:32.320Z,14.70
2023-02-21T13:09:43.618Z,13.50
2023-02-21T13:10:59.939Z,14.00
2023-02-21T13:12:38.858Z,14.05
2023-02-21T13:13:41.419Z,17.63
2023-02-21T13:14:56.404Z,19.27
2023-02-21T13:16:02.537Z,22.50
2023-02-21T13:17:05.253Z,32.05
2023-02-21T13:18:19.596Z,22.98
2023-02-21T13:19:23.058Z,20.08
2023-02-21T13:20:31.015Z,18.17
2023-02-21T13:21:59.560Z,18.13
2023-02-21T13:23:58.103Z,17.70
2023-02-21T13:25:48.471Z,17.02
2023-02-21T13:27:18.406Z,15.88
2023-02-21T13:28:23.810Z,15.70
2023-02-21T13:29:32.527Z,15.52
2023-02-21T13:30:46.937Z,14.57
2023-02-21T13:32:00.430Z,15.48
2023-02-21T13:33:06.177Z,15.70
2023-02-21T13:34:14.686Z,14.70
2023-02-21T13:35:24.678Z,14.55
2023-02-21T13:36:44.231Z,13.80
2023-02-21T13:37:51.272Z,14.32
2023-02-21T13:39:12.327Z,14.93
2023-02-21T13:40:31.590Z,13.93
2023-02-21T13:41:37.858Z,14.00
2023-02-21T13:42:40.264Z,15.38
2023-02-21T13:43:50.240Z,14.38
2023-02-21T13:45:09.475Z,14.10
2023-02-21T13:46:30.076Z,11.95
2023-02-21T13:47:58.422Z,10.90
2023-02-21T13:49:38.180Z,10.88
2023-02-21T13:50:46.712Z,12.32
2023-02-21T13:51:52.988Z,12.27
2023-02-21T13:53:18.777Z,12.88
2023-02-21T13:54:23.707Z,12.00
2023-02-21T13:55:27.521Z,13.40
2023-02-21T13:56:44.193Z,12.77
2023-02-21T13:57:58.319Z,12.85
2023-02-21T13:59:26.320Z,12.02
2023-02-21T14:00:28.609Z,13.10
2023-02-21T14:01:31.010Z,12.57
2023-02-21T14:02:34.847Z,12.43
2023-02-21T14:03:37.135Z,12.02
2023-02-21T14:04:57.562Z,12.52
2023-02-21T14:05:59.848Z,12.68
2023-02-21T14:07:02.801Z,12.25
2023-02-21T14:08:08.722Z,12.88
2023-02-21T14:09:17.541Z,12.63
2023-02-21T14:10:43.226Z,12.45
2023-02-21T14:11:51.680Z,12.90
2023-02-21T14:13:04.979Z,12.85
2023-02-21T14:14:25.148Z,11.70
2023-02-21T14:15:43.879Z,12.35
2023-02-21T14:16:47.783Z,12.23
2023-02-21T14:17:52.447Z,12.48
2023-02-21T14:19:01.513Z,12.23
2023-02-21T14:20:06.096Z,11.13
2023-02-21T14:21:37.647Z,11.80
2023-02-21T14:22:40.037Z,10.00
2023-02-21T14:24:06.072Z,10.55
2023-02-21T14:25:23.990Z,11.77
2023-02-21T14:26:38.182Z,12.52
2023-02-21T14:27:40.492Z,12.35
2023-02-21T14:28:57.820Z,11.90
2023-02-21T14:30:12.657Z,11.25
2023-02-21T14:31:15.547Z,11.88
2023-02-21T14:32:27.770Z,10.82
2023-02-21T14:33:31.180Z,11.18
2023-02-21T14:34:47.076Z,11.50
2023-02-21T14:36:04.669Z,11.75
2023-02-21T14:37:24.047Z,11.70
2023-02-21T14:38:30.876Z,10.85
2023-02-21T14:39:36.500Z,11.05
2023-02-21T14:41:12.134Z,10.90
2023-02-21T14:42:30.322Z,11.48
2023-02-21T14:43:54.576Z,11.20
2023-02-21T14:45:10.236Z,10.82
2023-02-21T14:46:41.126Z,11.40
2023-02-21T14:47:52.653Z,11.73
2023-02-21T14:49:12.893Z,11.32
2023-02-21T14:50:32.300Z,10.43
2023-02-21T14:51:57.511Z,10.68
2023-02-21T14:53:19.264Z,10.50
2023-02-21T14:54:45.980Z,10.57
2023-02-21T14:56:12.497Z,10.95
2023-02-21T14:57:49.121Z,9.15
2023-02-21T14:59:00.016Z,10.50
2023-02-21T15:00:39.058Z,10.00
2023-02-21T15:01:54.857Z,9.57
2023-02-21T15:03:04.777Z,9.50
2023-02-21T15:04:35.002Z,9.73
2023-02-21T15:06:10.832Z,9.25
2023-02-21T15:07:20.361Z,9.57
2023-02-21T15:08:24.843Z,9.25
2023-02-21T15:09:27.338Z,9.65
2023-02-21T15:10:32.111Z,10.88
2023-02-21T15:11:38.322Z,10.15
2023-02-21T15:13:01.322Z,9.70
2023-02-21T15:14:22.370Z,10.38
2023-02-21T15:15:35.356Z,10.35
2023-02-21T15:16:44.601Z,9.77
2023-02-21T15:18:04.781Z,9.45
2023-02-21T15:19:17.155Z,10.18
2023-02-21T15:20:19.557Z,9.43
2023-02-21T15:21:22.129Z,10.30
2023-02-21T15:22:26.665Z,9.43
2023-02-21T15:23:32.313Z,10.00
2023-02-21T15:24:34.639Z,9.57
2023-02-21T15:25:37.484Z,14.23
2023-02-21T15:26:40.185Z,11.23
2023-02-21T15:27:49.810Z,11.40
2023-02-21T15:29:08.790Z,11.35
2023-02-21T15:30:25.060Z,10.65
2023-02-21T15:31:28.415Z,11.02
2023-02-21T15:32:31.182Z,10.23
2023-02-21T15:33:37.987Z,10.68
2023-02-21T15:34:43.162Z,10.27
2023-02-21T15:35:48.732Z,10.80
2023-02-21T15:36:59.000Z,10.40
2023-02-21T15:38:04.588Z,10.63
2023-02-21T15:39:16.047Z,10.80